Time;durP1;ratioP1;P1;durP2;ratioP2;P2;SDS_P1;SDS_P2;PMS_P1;PMS_P2;Temp;Humidity;BMP_temperature;BMP_pressure;BME280_temperature;BME280_humidity;BME280_pressure;Samples;Min_cycle;Max_cycle;Signal;HPM_P1;HPM_P2
2024/02/26 00:02:36;;;;;;;1999.90;999.90;;;;;;;4.78;100.00;99861.25;10177549;29;20076;-66
2024/02/26 00:07:40;;;;;;;1999.90;999.90;;;;;;;4.90;100.00;99862.41;10190556;29;20496;-66
2024/02/26 00:12:42;;;;;;;1999.90;999.90;;;;;;;4.80;100.00;99856.81;10176609;29;20503;-66
2024/02/26 00:17:44;;;;;;;1999.90;999.90;;;;;;;5.00;100.00;99863.63;10176988;29;20056;-66
2024/02/26 00:22:47;;;;;;;1999.90;999.90;;;;;;;5.05;100.00;99853.84;10176368;29;20111;-66
2024/02/26 00:27:49;;;;;;;1999.90;999.90;;;;;;;4.96;100.00;99852.56;10176565;29;20059;-66
2024/02/26 00:32:51;;;;;;;1999.90;999.90;;;;;;;5.12;100.00;99849.19;10190983;29;20052;-66
2024/02/26 00:37:54;;;;;;;1999.90;999.90;;;;;;;4.97;100.00;99848.19;10190249;29;20067;-66
2024/02/26 00:42:56;;;;;;;1999.90;999.90;;;;;;;5.24;100.00;99850.34;10176140;29;20062;-66
2024/02/26 00:48:01;;;;;;;1999.90;999.90;;;;;;;5.45;100.00;99833.69;10175471;29;20453;-66
2024/02/26 00:53:03;;;;;;;1999.90;999.90;;;;;;;5.11;100.00;99840.59;10176538;29;20059;-66
2024/02/26 00:58:06;;;;;;;1999.90;999.90;;;;;;;5.34;100.00;99844.59;10189592;29;20403;-66
2024/02/26 01:03:09;;;;;;;1999.90;999.90;;;;;;;5.00;100.00;99837.69;10175644;29;20044;-66
2024/02/26 01:08:12;;;;;;;1999.90;999.90;;;;;;;5.23;100.00;99844.31;10189637;29;20519;-66
2024/02/26 01:13:14;;;;;;;1999.90;999.90;;;;;;;5.49;100.00;99837.78;10175866;29;20067;-66
2024/02/26 01:18:17;;;;;;;1999.90;999.90;;;;;;;5.58;100.00;99844.25;10189960;29;20052;-66
2024/02/26 01:23:19;;;;;;;1999.90;999.90;;;;;;;5.34;100.00;99836.81;10175295;29;20056;-66
2024/02/26 01:28:22;;;;;;;1999.90;999.90;;;;;;;5.43;100.00;99840.72;10174495;29;20138;-66
2024/02/26 01:33:26;;;;;;;1999.90;999.90;;;;;;;5.33;100.00;99855.06;10175105;29;20056;-66
2024/02/26 01:38:28;;;;;;;1999.90;999.90;;;;;;;5.58;100.00;99863.28;10181280;29;20083;-66
2024/02/26 01:43:31;;;;;;;1999.90;999.90;;;;;;;5.52;100.00;99867.94;10182709;29;20075;-66
2024/02/26 01:48:33;;;;;;;1999.90;999.90;;;;;;;5.37;100.00;99878.19;10182493;29;20044;-66
2024/02/26 01:53:36;;;;;;;1999.90;999.90;;;;;;;5.52;100.00;99889.56;10196344;29;20499;-66
2024/02/26 01:58:38;;;;;;;1999.90;999.90;;;;;;;5.40;100.00;99882.41;10182197;29;20048;-66
2024/02/26 02:03:41;;;;;;;1999.90;999.90;;;;;;;5.50;100.00;99875.81;10181426;29;20059;-66
2024/02/26 02:08:44;;;;;;;1999.90;999.90;;;;;;;5.23;100.00;99888.44;10181111;29;20087;-66
2024/02/26 02:13:46;;;;;;;1999.90;999.90;;;;;;;5.37;100.00;99882.53;10181727;29;20048;-66
2024/02/26 02:18:49;;;;;;;1999.90;999.90;;;;;;;5.57;100.00;99886.72;10196225;29;20067;-66
2024/02/26 02:23:51;;;;;;;1999.90;999.90;;;;;;;5.81;100.00;99892.41;10180635;29;20086;-66
2024/02/26 02:28:53;;;;;;;1999.90;999.90;;;;;;;5.74;100.00;99893.66;10180990;29;20062;-66
2024/02/26 02:33:56;;;;;;;1999.90;999.90;;;;;;;5.62;100.00;99910.72;10180267;29;20198;-66
2024/02/26 02:38:58;;;;;;;1999.90;999.90;;;;;;;5.56;100.00;99911.00;10180795;29;20040;-66
2024/02/26 02:44:02;;;;;;;1999.90;999.90;;;;;;;5.68;100.00;99910.41;10180475;29;20056;-66
2024/02/26 02:49:08;;;;;;;1999.90;999.90;;;;;;;5.60;100.00;99899.56;10179880;29;20056;-66
2024/02/26 02:54:10;;;;;;;1999.90;999.90;;;;;;;5.83;100.00;99900.13;10194137;29;20083;-66
2024/02/26 02:59:13;;;;;;;1999.90;999.90;;;;;;;5.55;100.00;99906.75;10179785;29;20059;-66
2024/02/26 03:04:15;;;;;;;1999.90;999.90;;;;;;;5.63;100.00;99907.22;10193638;29;20412;-66
2024/02/26 03:09:17;;;;;;;1999.90;999.90;;;;;;;5.83;100.00;99900.13;10193818;29;20060;-66
2024/02/26 03:14:20;;;;;;;1999.90;999.90;;;;;;;5.76;100.00;99910.00;10179432;29;20127;-66
2024/02/26 03:19:22;;;;;;;1999.90;999.90;;;;;;;5.74;100.00;99914.44;10178588;29;20507;-66
2024/02/26 03:24:26;;;;;;;1999.90;999.90;;;;;;;5.62;100.00;99910.72;10178426;29;20436;-66
2024/02/26 03:29:29;;;;;;;1999.90;999.90;;;;;;;5.74;100.00;99909.25;10178704;29;20052;-66
2024/02/26 03:34:35;;;;;;;1999.90;999.90;;;;;;;5.51;100.00;99915.59;10178066;29;20048;-66
2024/02/26 03:39:38;;;;;;;1999.90;999.90;;;;;;;5.68;100.00;99928.59;10177955;29;20099;-66
2024/02/26 03:44:41;;;;;;;1999.90;999.90;;;;;;;5.52;100.00;99938.06;10178293;29;20056;-66
2024/02/26 03:49:43;;;;;;;1999.90;999.90;;;;;;;5.80;100.00;99928.84;10178479;29;20099;-66
2024/02/26 03:54:46;;;;;;;1999.90;999.90;;;;;;;5.58;100.00;99923.00;10177936;29;20056;-66
2024/02/26 03:59:48;;;;;;;1999.90;999.90;;;;;;;5.46;100.00;99927.97;10176225;29;20488;-66
2024/02/26 04:04:51;;;;;;;1999.90;999.90;;;;;;;5.52;100.00;99935.47;10177545;29;20087;-66
2024/02/26 04:09:53;;;;;;;1999.90;999.90;;;;;;;5.56;100.00;99935.25;10176727;29;20416;-66
2024/02/26 04:14:55;;;;;;;1999.90;999.90;;;;;;;5.49;100.00;99939.03;10177120;29;20136;-66
2024/02/26 04:19:58;;;;;;;1999.90;999.90;;;;;;;5.42;100.00;99939.44;10176939;29;20051;-66
2024/02/26 04:25:00;;;;;;;1999.90;999.90;;;;;;;5.34;100.00;99940.63;10176982;29;20063;-66
2024/02/26 04:30:04;;;;;;;1999.90;999.90;;;;;;;5.42;100.00;99942.88;10176585;29;20052;-66
2024/02/26 04:35:06;;;;;;;1999.90;999.90;;;;;;;5.43;100.00;99944.56;10176445;29;20056;-65
2024/02/26 04:40:09;;;;;;;1999.90;999.90;;;;;;;5.51;100.00;99952.78;10176384;29;20132;-66
2024/02/26 04:45:12;;;;;;;1999.90;999.90;;;;;;;5.48;100.00;99965.06;10176360;29;20119;-65
2024/02/26 04:50:14;;;;;;;1999.90;999.90;;;;;;;5.33;100.00;99959.75;10175245;29;20556;-65
2024/02/26 04:55:17;;;;;;;1999.90;999.90;;;;;;;5.46;100.00;99961.72;10189826;29;20056;-65
2024/02/26 05:00:19;;;;;;;1999.90;999.90;;;;;;;5.34;100.00;99963.16;10173854;29;20403;-65
2024/02/26 05:05:22;;;;;;;1999.90;999.90;;;;;;;5.44;100.00;99961.78;10175645;29;20056;-65
2024/02/26 05:10:25;;;;;;;1999.90;999.90;;;;;;;5.39;100.00;99964.59;10174973;29;20062;-65
2024/02/26 05:15:27;;;;;;;1999.90;999.90;;;;;;;5.44;100.00;99974.78;10189458;29;20463;-65
2024/02/26 05:20:31;;;;;;;1999.90;999.90;;;;;;;5.41;100.00;99980.13;10174717;29;20055;-65
2024/02/26 05:25:33;;;;;;;1999.90;999.90;;;;;;;5.26;100.00;99979.13;10174575;29;20056;-65
2024/02/26 05:30:35;;;;;;;1999.90;999.90;;;;;;;5.44;100.00;99989.53;10175122;29;20052;-65
2024/02/26 05:35:38;;;;;;;1999.90;999.90;;;;;;;5.14;100.00;99982.28;10189051;29;20586;-65
2024/02/26 05:40:41;;;;;;;1999.90;999.90;;;;;;;5.29;100.00;99985.91;10175139;29;20051;-65
2024/02/26 05:45:43;;;;;;;1999.90;999.90;;;;;;;5.20;100.00;99995.81;10174920;29;20048;-65
2024/02/26 05:50:46;;;;;;;1999.90;999.90;;;;;;;5.17;100.00;99993.38;10174681;29;20123;-65
2024/02/26 05:55:48;;;;;;;1999.90;999.90;;;;;;;5.21;100.00;99997.50;10189302;29;20048;-65
2024/02/26 06:00:51;;;;;;;1999.90;999.90;;;;;;;5.09;100.00;100007.63;10174024;29;20488;-65
2024/02/26 06:05:53;;;;;;;1999.90;999.90;;;;;;;5.21;100.00;100017.41;10189158;29;20056;-65
2024/02/26 06:10:56;;;;;;;1999.90;999.90;;;;;;;5.28;100.00;100024.00;10188111;29;20091;-65
2024/02/26 06:15:58;;;;;;;1999.90;999.90;;;;;;;5.31;100.00;100034.25;10174326;29;20052;-65
2024/02/26 06:21:01;;;;;;;1999.90;999.90;;;;;;;5.11;100.00;100032.59;10189062;29;20131;-65
2024/02/26 06:26:03;;;;;;;1999.90;999.90;;;;;;;5.14;100.00;100044.56;10179426;29;20424;-65
2024/02/26 06:31:06;;;;;;;1999.90;999.90;;;;;;;5.01;100.00;100042.56;10180985;29;20048;-65
2024/02/26 06:36:09;;;;;;;1999.90;999.90;;;;;;;5.20;100.00;100052.91;10195426;29;20058;-65
2024/02/26 06:41:11;;;;;;;1999.90;999.90;;;;;;;5.17;100.00;100049.63;10180633;29;20055;-65
2024/02/26 06:46:13;;;;;;;1999.90;999.90;;;;;;;5.13;100.00;100056.72;10180444;29;20079;-65
2024/02/26 06:51:16;;;;;;;1999.90;999.90;;;;;;;5.00;100.00;100064.22;10179616;29;20078;-65
2024/02/26 06:56:19;;;;;;;1999.90;999.90;;;;;;;5.13;100.00;100068.84;10180109;29;20052;-65
2024/02/26 07:01:21;;;;;;;1999.90;999.90;;;;;;;5.01;100.00;100065.91;10179946;29;20128;-65
2024/02/26 07:06:24;;;;;;;1999.90;999.90;;;;;;;4.98;100.00;100070.41;10180209;29;20079;-65
2024/02/26 07:11:26;;;;;;;1999.90;999.90;;;;;;;5.17;100.00;100078.16;10193840;29;20067;-65
2024/02/26 07:16:28;;;;;;;1999.90;999.90;;;;;;;5.03;100.00;100087.44;10178828;29;20452;-65
2024/02/26 07:21:31;;;;;;;1999.90;999.90;;;;;;;5.03;100.00;100090.03;10179252;29;20048;-65
2024/02/26 07:26:34;;;;;;;1999.90;999.90;;;;;;;5.07;100.00;100103.69;10193624;29;20083;-65
2024/02/26 08:16:56;;;;;;;1999.90;999.90;;;;;;;5.37;100.00;100155.13;10186065;29;20431;-65
2024/02/26 08:21:59;;;;;;;1999.90;999.90;;;;;;;5.21;100.00;100158.41;10188727;29;20044;-65
2024/02/26 08:27:06;;;;;;;1999.90;999.90;;;;;;;5.43;100.00;100153.97;10216787;23;20082;-66
2024/02/26 08:32:09;;;;;;;1999.90;999.90;;;;;;;5.39;100.00;100153.28;10214729;29;20059;-65
2024/02/26 08:37:12;;;;;;;1999.90;999.90;;;;;;;5.34;100.00;100166.47;10202665;29;20114;-65
2024/02/26 08:42:14;;;;;;;1999.90;999.90;;;;;;;5.29;100.00;100172.78;10212912;29;20513;-66
2024/02/26 08:47:17;;;;;;;1999.90;999.90;;;;;;;5.21;100.00;100183.50;10199137;29;20506;-66
2024/02/26 08:52:21;;;;;;;1999.90;999.90;;;;;;;5.43;100.00;100196.38;10177043;29;20084;-66
2024/02/26 08:57:26;;;;;;;1999.90;999.90;;;;;;;5.35;100.00;100195.88;10183724;29;20436;-63
2024/02/26 09:02:30;;;;;;;1999.90;999.90;;;;;;;5.31;100.00;100204.72;10215962;29;20052;-64
2024/02/26 09:07:32;;;;;;;1999.90;999.90;;;;;;;5.49;100.00;100213.44;10201838;29;20055;-66
2024/02/26 09:12:36;;;;;;;1999.90;999.90;;;;;;;5.48;100.00;100227.31;10210626;29;20048;-65
2024/02/26 09:17:39;;;;;;;1999.90;999.90;;;;;;;5.61;100.00;100217.22;10208111;29;20051;-65
2024/02/26 09:22:42;;;;;;;1999.90;999.90;;;;;;;5.73;100.00;100227.91;10209130;29;20059;-66
2024/02/26 09:27:45;;;;;;;1999.90;999.90;;;;;;;5.63;100.00;100242.22;10197234;29;20083;-65
2024/02/26 09:32:48;;;;;;;1999.90;999.90;;;;;;;5.51;100.00;100246.19;10213283;29;20063;-65
2024/02/26 09:37:50;;;;;;;1999.90;999.90;;;;;;;5.69;100.00;100257.50;10213757;29;20088;-65
2024/02/26 09:42:59;;;;;;;1999.90;999.90;;;;;;;5.72;100.00;100249.56;10213788;29;20058;-65
2024/02/26 09:48:03;;;;;;;1999.90;999.90;;;;;;;5.81;100.00;100261.28;10196692;29;20086;-65
2024/02/26 09:53:10;;;;;;;1999.90;999.90;;;;;;;5.75;100.00;100269.38;10212892;29;20065;-66
2024/02/26 09:58:18;;;;;;;1999.90;999.90;;;;;;;5.46;100.00;100271.50;10215841;29;20538;-65
2024/02/26 10:03:22;;;;;;;1999.90;999.90;;;;;;;5.62;100.00;100270.84;10220853;29;20530;-65
2024/02/26 10:08:24;;;;;;;1999.90;999.90;;;;;;;5.69;100.00;100283.47;10220589;29;20059;-65
2024/02/26 10:13:27;;;;;;;1999.90;999.90;;;;;;;5.62;100.00;100283.84;10204163;29;20216;-65
2024/02/26 10:18:52;;;;;;;1999.90;999.90;;;;;;;5.71;100.00;100288.59;10220261;29;20056;-65
2024/02/26 10:23:57;;;;;;;1999.90;999.90;;;;;;;5.63;100.00;100316.66;10219020;29;20094;-65
2024/02/26 10:29:01;;;;;;;1999.90;999.90;;;;;;;5.92;100.00;100323.19;10202966;29;20491;-65
2024/02/26 10:34:03;;;;;;;1999.90;999.90;;;;;;;5.86;100.00;100332.06;10219206;29;20058;-66
2024/02/26 10:39:07;;;;;;;1999.90;999.90;;;;;;;5.92;100.00;100333.56;10219092;29;20052;-65
2024/02/26 10:44:10;;;;;;;1999.90;999.90;;;;;;;5.76;100.00;100344.63;10218215;29;20056;-66
2024/02/26 10:49:18;;;;;;;1999.90;999.90;;;;;;;5.75;100.00;100355.13;10218866;29;20048;-65
2024/02/26 10:54:22;;;;;;;1999.90;999.90;;;;;;;6.05;100.00;100368.50;10218521;29;20056;-65
2024/02/26 10:59:24;;;;;;;1999.90;999.90;;;;;;;5.95;100.00;100375.84;10217811;29;20050;-66
2024/02/26 11:04:28;;;;;;;1999.90;999.90;;;;;;;6.11;100.00;100375.19;10219282;29;20099;-66
2024/02/26 11:36:24;;;;;;;1999.90;999.90;;;;;;;6.04;100.00;100402.38;10216712;29;20071;-66
2024/02/26 11:41:27;;;;;;;1999.90;999.90;;;;;;;5.96;100.00;100415.69;10217206;29;20055;-66
2024/02/26 11:46:33;;;;;;;1999.90;999.90;;;;;;;6.07;100.00;100412.59;10216007;29;20048;-66
2024/02/26 11:51:36;;;;;;;1999.90;999.90;;;;;;;6.05;100.00;100417.91;10216224;29;20058;-65
2024/02/26 11:56:41;;;;;;;1999.90;999.90;;;;;;;5.98;100.00;100419.06;10216640;29;20463;-65
2024/02/26 12:01:47;;;;;;;1999.90;999.90;;;;;;;6.01;100.00;100424.13;10217619;29;20044;-66
2024/02/26 12:06:56;;;;;;;1999.90;999.90;;;;;;;5.88;100.00;100428.97;10215701;29;20054;-66
2024/02/26 12:12:03;;;;;;;1999.90;999.90;;;;;;;5.91;100.00;100439.25;10216032;29;20501;-65
2024/02/26 12:17:08;;;;;;;1999.90;999.90;;;;;;;6.03;100.00;100440.47;10216599;29;20172;-66
2024/02/26 12:22:14;;;;;;;1999.90;999.90;;;;;;;5.98;100.00;100455.44;10198856;29;20062;-66
2024/02/26 12:27:16;;;;;;;1999.90;999.90;;;;;;;5.97;100.00;100458.97;10216805;29;20086;-66
2024/02/26 12:32:19;;;;;;;1999.90;999.90;;;;;;;5.97;100.00;100465.91;10215657;29;20059;-66
2024/02/26 12:37:21;;;;;;;1999.90;999.90;;;;;;;6.03;100.00;100457.84;10215937;29;20126;-66
2024/02/26 12:42:23;;;;;;;1999.90;999.90;;;;;;;6.03;100.00;100476.88;10214105;29;20056;-66
2024/02/26 12:47:26;;;;;;;1999.90;999.90;;;;;;;5.88;100.00;100486.13;10214368;29;20127;-66
2024/02/26 12:52:29;;;;;;;1999.90;999.90;;;;;;;6.11;100.00;100492.97;10214633;29;20052;-66
2024/02/26 12:57:36;;;;;;;1999.90;999.90;;;;;;;6.01;100.00;100498.66;10215445;29;20402;-66
2024/02/26 13:02:39;;;;;;;1999.90;999.90;;;;;;;6.18;100.00;100487.53;10214516;29;20131;-65
2024/02/26 13:07:47;;;;;;;1999.90;999.90;;;;;;;6.19;100.00;100494.41;10215418;29;20047;-65
2024/02/26 13:12:53;;;;;;;1999.90;999.90;;;;;;;6.06;100.00;100510.53;10214184;29;20451;-66
2024/02/26 13:17:56;;;;;;;1999.90;999.90;;;;;;;6.03;100.00;100522.81;10214844;29;20058;-66
2024/02/26 13:23:06;;;;;;;1999.90;999.90;;;;;;;6.05;100.00;100528.78;10213344;29;20056;-66
2024/02/26 13:28:13;;;;;;;1999.90;999.90;;;;;;;5.93;100.00;100527.53;10213466;29;20055;-66
2024/02/26 13:33:17;;;;;;;1999.90;999.90;;;;;;;6.04;100.00;100533.16;10218854;29;20122;-66
2024/02/26 13:38:19;;;;;;;1999.90;999.90;;;;;;;6.26;100.00;100542.63;10222396;29;20055;-66
2024/02/26 13:43:22;;;;;;;1999.90;999.90;;;;;;;6.24;100.00;100547.06;10221635;29;20048;-66
2024/02/26 13:48:24;;;;;;;1999.90;999.90;;;;;;;6.33;100.00;100557.88;10221551;29;20052;-66
2024/02/26 13:53:27;;;;;;;1999.90;999.90;;;;;;;6.26;100.00;100564.25;10221186;29;20403;-66
2024/02/26 13:58:33;;;;;;;1999.90;999.90;;;;;;;6.18;100.00;100561.16;10221769;29;20063;-67
2024/02/26 14:03:35;;;;;;;1999.90;999.90;;;;;;;6.44;100.00;100570.44;10221959;29;20070;-66
2024/02/26 14:08:38;;;;;;;1999.90;999.90;;;;;;;6.39;100.00;100577.59;10221236;29;20431;-66
2024/02/26 14:13:40;;;;;;;1999.90;999.90;;;;;;;6.07;100.00;100586.75;10221105;29;20050;-66
2024/02/26 14:18:46;;;;;;;1999.90;999.90;;;;;;;6.32;100.00;100603.00;10221262;29;20052;-66
2024/02/26 14:23:49;;;;;;;1999.90;999.90;;;;;;;6.30;100.00;100610.03;10219713;29;20051;-66
2024/02/26 14:28:51;;;;;;;1999.90;999.90;;;;;;;6.63;100.00;100619.03;10220662;29;20110;-66
2024/02/26 14:33:54;;;;;;;1999.90;999.90;;;;;;;6.66;100.00;100631.94;10219677;29;20427;-66
2024/02/26 14:38:57;;;;;;;1999.90;999.90;;;;;;;6.52;100.00;100629.91;10219661;29;20087;-66
2024/02/26 14:43:59;;;;;;;1999.90;999.90;;;;;;;6.42;100.00;100634.69;10219073;29;20063;-66
2024/02/26 14:49:01;;;;;;;1999.90;999.90;;;;;;;6.38;100.00;100640.06;10218811;29;20130;-66
2024/02/26 14:54:04;;;;;;;1999.90;999.90;;;;;;;6.42;100.00;100644.22;10203166;29;20047;-66
2024/02/26 14:59:07;;;;;;;1999.90;999.90;;;;;;;6.32;100.00;100652.41;10218355;29;20107;-66
2024/02/26 15:04:09;;;;;;;1999.90;999.90;;;;;;;6.20;100.00;100670.28;10218125;29;20060;-66
2024/02/26 15:09:12;;;;;;;1999.90;999.90;;;;;;;6.28;100.00;100681.19;10219141;29;20055;-66
2024/02/26 15:14:15;;;;;;;1999.90;999.90;;;;;;;6.25;100.00;100678.72;10218980;29;20063;-66
2024/02/26 15:19:18;;;;;;;1999.90;999.90;;;;;;;6.16;100.00;100682.56;10218753;29;20075;-66
2024/02/26 15:24:20;;;;;;;1999.90;999.90;;;;;;;6.27;100.00;100692.50;10218491;29;20055;-66
2024/02/26 15:29:23;;;;;;;1999.90;999.90;;;;;;;6.28;100.00;100704.59;10218300;29;20051;-65
2024/02/26 15:34:25;;;;;;;1999.90;999.90;;;;;;;6.18;100.00;100711.94;10217366;29;20090;-65
2024/02/26 15:39:28;;;;;;;1999.90;999.90;;;;;;;6.48;100.00;100720.22;10200516;29;20082;-66
2024/02/26 15:44:30;;;;;;;1999.90;999.90;;;;;;;6.23;100.00;100732.53;10216002;29;20587;-66
2024/02/26 15:49:33;;;;;;;1999.90;999.90;;;;;;;6.26;100.00;100732.44;10218315;29;20058;-66
2024/02/26 15:54:42;;;;;;;1999.90;999.90;;;;;;;5.95;100.00;100739.66;10215629;29;20048;-66
2024/02/26 15:59:45;;;;;;;1999.90;999.90;;;;;;;6.11;100.00;100754.69;10217727;29;20048;-65
2024/02/26 16:04:48;;;;;;;1999.90;999.90;;;;;;;6.37;100.00;100750.19;10216960;29;20051;-66
2024/02/26 16:09:52;;;;;;;1999.90;999.90;;;;;;;5.94;100.00;100760.50;10216722;29;20051;-66
2024/02/26 16:14:54;;;;;;;1999.90;999.90;;;;;;;6.03;100.00;100769.72;10215484;29;20130;-66
2024/02/26 16:19:57;;;;;;;1999.90;999.90;;;;;;;5.97;100.00;100773.41;10216035;29;20573;-66
2024/02/26 16:25:00;;;;;;;1999.90;999.90;;;;;;;6.01;100.00;100761.97;10215649;29;20491;-66
2024/02/26 16:30:07;;;;;;;1999.90;999.90;;;;;;;6.08;100.00;100767.78;10214860;29;20052;-66
2024/02/26 16:35:13;;;;;;;1999.90;999.90;;;;;;;6.00;100.00;100782.84;10214232;29;20069;-66
2024/02/26 16:40:17;;;;;;;1999.90;999.90;;;;;;;5.81;100.00;100796.50;10215759;29;20063;-66
2024/02/26 16:45:20;;;;;;;1999.90;999.90;;;;;;;5.87;100.00;100809.25;10214456;29;20059;-65
2024/02/26 16:50:23;;;;;;;1999.90;999.90;;;;;;;6.02;100.00;100812.22;10214739;29;20419;-66
2024/02/26 16:55:27;;;;;;;1999.90;999.90;;;;;;;5.97;100.00;100821.94;10213504;29;20514;-66
2024/02/26 17:00:30;;;;;;;1999.90;999.90;;;;;;;5.93;100.00;100829.84;10215299;29;20074;-65
2024/02/26 17:05:33;;;;;;;1999.90;999.90;;;;;;;5.88;100.00;100839.53;10213977;29;20048;-65
2024/02/26 17:10:36;;;;;;;1999.90;999.90;;;;;;;5.91;100.00;100846.38;10214223;29;20115;-66
2024/02/26 17:15:39;;;;;;;1999.90;999.90;;;;;;;5.99;100.00;100859.13;10213713;29;20051;-66
2024/02/26 17:20:41;;;;;;;1999.90;999.90;;;;;;;5.75;100.00;100870.31;10214078;29;20563;-65
2024/02/26 17:25:44;;;;;;;1999.90;999.90;;;;;;;5.83;100.00;100877.00;10215113;29;20127;-66
2024/02/26 17:30:46;;;;;;;1999.90;999.90;;;;;;;5.77;100.00;100894.50;10214476;29;20051;-66
2024/02/26 17:35:49;;;;;;;1999.90;999.90;;;;;;;5.57;100.00;100905.59;10212643;29;20051;-65
2024/02/26 17:40:51;;;;;;;1999.90;999.90;;;;;;;5.58;100.00;100922.00;10213221;29;20051;-65
2024/02/26 17:45:53;;;;;;;1999.90;999.90;;;;;;;5.66;100.00;100935.59;10214686;29;20086;-65
2024/02/26 17:50:56;;;;;;;1999.90;999.90;;;;;;;5.66;100.00;100942.53;10212373;29;20399;-65
2024/02/26 17:56:06;;;;;;;1999.90;999.90;;;;;;;5.52;100.00;100967.22;10214105;29;20051;-65
2024/02/26 18:01:11;;;;;;;1999.90;999.90;;;;;;;5.70;100.00;100983.09;10213878;29;20047;-65
2024/02/26 18:06:13;;;;;;;1999.90;999.90;;;;;;;5.44;100.00;100987.41;10214047;29;20055;-65
2024/02/26 18:11:16;;;;;;;1999.90;999.90;;;;;;;5.61;100.00;100991.19;10211974;29;20451;-66
2024/02/26 18:16:18;;;;;;;1999.90;999.90;;;;;;;5.49;100.00;100998.50;10213123;29;20087;-65
2024/02/26 18:21:21;;;;;;;1999.90;999.90;;;;;;;5.49;100.00;101010.63;10219587;29;20578;-66
2024/02/26 18:26:24;;;;;;;1999.90;999.90;;;;;;;5.35;100.00;101014.53;10220729;29;20052;-66
2024/02/26 18:31:29;;;;;;;1999.90;999.90;;;;;;;5.49;100.00;101026.22;10219246;29;20059;-65
2024/02/26 18:36:31;;;;;;;1999.90;999.90;;;;;;;5.27;100.00;101026.91;10220256;29;20055;-66
2024/02/26 18:41:33;;;;;;;1999.90;999.90;;;;;;;5.47;100.00;101034.06;10218356;29;20525;-66
2024/02/26 18:46:45;;;;;;;1999.90;999.90;;;;;;;5.53;100.00;101040.78;10218229;29;20439;-66
2024/02/26 18:51:48;;;;;;;1999.90;999.90;;;;;;;5.29;100.00;101045.03;10218596;29;20048;-65
2024/02/26 18:56:50;;;;;;;1999.90;999.90;;;;;;;5.40;100.00;101067.16;10219548;29;20059;-66
2024/02/26 19:01:53;;;;;;;1999.90;999.90;;;;;;;5.31;100.00;101064.88;10219449;29;20051;-65
2024/02/26 19:06:55;;;;;;;1999.90;999.90;;;;;;;5.35;100.00;101073.41;10218609;29;20522;-66
2024/02/26 19:11:58;;;;;;;1999.90;999.90;;;;;;;5.20;100.00;101082.53;10217226;29;20484;-66
2024/02/26 19:17:00;;;;;;;1999.90;999.90;;;;;;;5.12;100.00;101092.28;10219038;29;20071;-66
2024/02/26 19:22:06;;;;;;;1999.90;999.90;;;;;;;5.13;100.00;101109.56;10217011;29;20411;-66
2024/02/26 19:27:14;;;;;;;1999.90;999.90;;;;;;;5.40;100.00;101105.28;10217406;29;20058;-66
2024/02/26 19:32:16;;;;;;;1999.90;999.90;;;;;;;5.12;100.00;101118.22;10216449;29;20052;-66
2024/02/26 19:37:19;;;;;;;1999.90;999.90;;;;;;;5.09;100.00;101121.75;10218127;29;20062;-66
2024/02/26 19:42:21;;;;;;;1999.90;999.90;;;;;;;5.19;100.00;101119.75;10217867;29;20047;-66
2024/02/26 19:47:23;;;;;;;1999.90;999.90;;;;;;;5.25;100.00;101137.75;10216465;29;20047;-66
2024/02/26 19:52:26;;;;;;;1999.90;999.90;;;;;;;5.15;100.00;101149.28;10215755;29;20054;-66
2024/02/26 19:57:28;;;;;;;1999.90;999.90;;;;;;;5.15;100.00;101159.69;10217302;29;20062;-66
2024/02/26 20:02:31;;;;;;;1999.90;999.90;;;;;;;5.08;100.00;101165.91;10217181;29;20059;-66
2024/02/26 20:07:33;;;;;;;1999.90;999.90;;;;;;;5.03;100.00;101177.28;10216978;29;20048;-66
2024/02/26 20:12:35;;;;;;;1999.90;999.90;;;;;;;5.24;100.00;101184.50;10216909;29;20051;-66
2024/02/26 20:17:38;;;;;;;1999.90;999.90;;;;;;;5.12;100.00;101196.09;10215942;29;20491;-66
2024/02/26 20:22:40;;;;;;;1999.90;999.90;;;;;;;5.18;100.00;101190.75;10213761;29;20060;-66
2024/02/26 20:27:43;;;;;;;1999.90;999.90;;;;;;;5.05;100.00;101204.97;10216662;29;20055;-66
2024/02/26 20:32:45;;;;;;;1999.90;999.90;;;;;;;5.17;100.00;101221.03;10216031;29;20399;-66
2024/02/26 20:37:48;;;;;;;1999.90;999.90;;;;;;;5.11;100.00;101222.94;10223232;23;20087;-66
2024/02/26 20:42:50;;;;;;;1999.90;999.90;;;;;;;5.05;100.00;101225.72;10215680;29;20047;-66
2024/02/26 20:47:53;;;;;;;1999.90;999.90;;;;;;;5.18;100.00;101234.88;10215596;29;20132;-66
2024/02/26 20:52:55;;;;;;;1999.90;999.90;;;;;;;4.99;100.00;101244.88;10215389;29;20051;-66
2024/02/26 20:57:59;;;;;;;1999.90;999.90;;;;;;;4.89;100.00;101259.00;10215348;29;20135;-66
2024/02/26 21:03:08;;;;;;;1999.90;999.90;;;;;;;5.20;100.00;101272.88;10215182;29;20167;-66
2024/02/26 21:08:10;;;;;;;1999.90;999.90;;;;;;;5.11;100.00;101286.09;10214512;29;20526;-66
2024/02/26 21:13:25;;;;;;;1999.90;999.90;;;;;;;4.87;100.00;101290.19;10213225;29;20055;-66
2024/02/26 21:18:27;;;;;;;1999.90;999.90;;;;;;;5.00;100.00;101303.69;10198101;29;20056;-66
2024/02/26 21:23:30;;;;;;;1999.90;999.90;;;;;;;5.05;100.00;101316.56;10214730;29;20052;-66
2024/02/26 21:28:33;;;;;;;1999.90;999.90;;;;;;;4.93;100.00;101313.38;10214664;29;20048;-66
2024/02/26 21:33:35;;;;;;;1999.90;999.90;;;;;;;5.02;100.00;101331.28;10214471;29;20107;-66
2024/02/26 21:38:38;;;;;;;1999.90;999.90;;;;;;;5.20;100.00;101335.16;10214180;29;20062;-66
2024/02/26 21:43:53;;;;;;;1999.90;999.90;;;;;;;5.26;100.00;101348.88;10213825;29;20494;-66
2024/02/26 21:48:55;;;;;;;1999.90;999.90;;;;;;;5.14;100.00;101355.25;10213121;29;20135;-66
2024/02/26 21:53:58;;;;;;;1999.90;999.90;;;;;;;5.19;100.00;101351.66;10219032;29;20095;-66
2024/02/26 21:59:03;;;;;;;1999.90;999.90;;;;;;;5.06;100.00;101349.41;10221818;29;20060;-66
2024/02/26 22:04:06;;;;;;;1999.90;999.90;;;;;;;5.17;100.00;101355.16;10220763;29;20052;-66
2024/02/26 22:09:08;;;;;;;1999.90;999.90;;;;;;;5.15;100.00;101356.97;10221642;29;20055;-66
2024/02/26 22:14:11;;;;;;;1999.90;999.90;;;;;;;5.20;100.00;101370.66;10221685;29;20075;-66
2024/02/26 22:19:13;;;;;;;1999.90;999.90;;;;;;;4.88;100.00;101374.94;10221054;29;20048;-66
2024/02/26 22:24:16;;;;;;;1999.90;999.90;;;;;;;5.15;100.00;101385.50;10220277;29;20055;-66
2024/02/26 22:29:19;;;;;;;1999.90;999.90;;;;;;;4.99;100.00;101387.63;10219577;29;20055;-66
2024/02/26 22:34:21;;;;;;;1999.90;999.90;;;;;;;5.04;100.00;101388.34;10219870;29;20502;-66
2024/02/26 22:39:24;;;;;;;1999.90;999.90;;;;;;;5.03;100.00;101390.13;10219660;29;20414;-66
2024/02/26 22:44:27;;;;;;;1999.90;999.90;;;;;;;5.24;100.00;101389.63;10220301;29;20052;-66
2024/02/26 22:49:31;;;;;;;1999.90;999.90;;;;;;;4.99;100.00;101380.72;10220018;29;20052;-66
2024/02/26 22:54:34;;;;;;;1999.90;999.90;;;;;;;4.90;100.00;101380.09;10219129;29;20513;-66
2024/02/26 22:59:37;;;;;;;1999.90;999.90;;;;;;;4.87;100.00;101380.16;10219804;29;20142;-66
2024/02/26 23:04:41;;;;;;;1999.90;999.90;;;;;;;4.61;100.00;101387.66;10217663;29;20134;-66
2024/02/26 23:09:43;;;;;;;1999.90;999.90;;;;;;;5.01;100.00;101398.84;10219731;29;20130;-67
2024/02/26 23:14:46;;;;;;;1999.90;999.90;;;;;;;4.76;100.00;101408.97;10219018;29;20043;-66